Time;durP1;ratioP1;P1;durP2;ratioP2;P2;SDS_P1;SDS_P2;PMS_P1;PMS_P2;Temp;Humidity;BMP_temperature;BMP_pressure;BME280_temperature;BME280_humidity;BME280_pressure;Samples;Min_cycle;Max_cycle;Signal;HPM_P1;HPM_P2
2021/05/26 00:04:34;;;;;;;5.43;3.50;;;;;;;;;;10260812;28;20048;-69
2021/05/26 00:09:30;;;;;;;5.25;3.17;;;;;;;;;;10275816;28;20041;-69
2021/05/26 00:14:27;;;;;;;5.28;3.58;;;;;;;;;;10258916;28;20075;-69
2021/05/26 00:19:23;;;;;;;5.80;3.58;;;;;;;;;;10269076;28;20102;-67
2021/05/26 00:24:19;;;;;;;5.68;4.00;;;;;;;;;;10272110;28;20510;-66
2021/05/26 00:29:16;;;;;;;5.63;3.20;;;;;;;;;;10270470;28;20048;-66
2021/05/26 00:34:12;;;;;;;5.80;3.42;;;;;;;;;;10268065;28;20093;-67
2021/05/26 00:39:08;;;;;;;5.43;3.72;;;;;;;;;;10270277;28;20057;-69
2021/05/26 00:44:05;;;;;;;9.27;5.63;;;;;;;;;;10272206;28;20040;-69
2021/05/26 00:49:01;;;;;;;7.28;4.82;;;;;;;;;;10271254;28;20128;-69
2021/05/26 00:53:57;;;;;;;8.48;5.20;;;;;;;;;;10268608;28;20605;-67
2021/05/26 00:58:54;;;;;;;8.98;5.93;;;;;;;;;;10276686;28;20135;-70
2021/05/26 01:03:50;;;;;;;7.63;6.05;;;;;;;;;;10253632;28;20068;-69
2021/05/26 01:08:46;;;;;;;10.50;7.20;;;;;;;;;;10269012;28;20438;-68
2021/05/26 01:13:42;;;;;;;7.90;5.85;;;;;;;;;;10271470;28;20041;-68
2021/05/26 01:18:39;;;;;;;9.00;5.93;;;;;;;;;;10266514;28;20049;-68
2021/05/26 01:23:36;;;;;;;9.50;7.05;;;;;;;;;;10275753;28;20495;-69
2021/05/26 01:28:34;;;;;;;8.77;6.13;;;;;;;;;;10270750;28;20045;-70
2021/05/26 01:33:30;;;;;;;9.05;7.22;;;;;;;;;;10269331;28;20036;-70
2021/05/26 01:38:27;;;;;;;12.20;7.90;;;;;;;;;;10280418;28;20041;-70
2021/05/26 01:43:24;;;;;;;13.65;9.43;;;;;;;;;;10265665;28;20049;-69
2021/05/26 01:48:20;;;;;;;11.85;9.27;;;;;;;;;;10274454;28;20114;-71
2021/05/26 01:53:17;;;;;;;12.32;10.85;;;;;;;;;;10275416;28;20045;-72
2021/05/26 01:58:14;;;;;;;14.38;10.55;;;;;;;;;;10260435;28;20069;-72
2021/05/26 02:03:10;;;;;;;13.45;10.82;;;;;;;;;;10257800;28;20474;-72
2021/05/26 02:08:07;;;;;;;13.07;10.73;;;;;;;;;;10262407;28;20115;-72
2021/05/26 02:13:03;;;;;;;13.85;10.02;;;;;;;;;;10266508;28;20038;-72
2021/05/26 02:18:00;;;;;;;13.57;11.98;;;;;;;;;;10271836;28;20048;-69
2021/05/26 02:22:56;;;;;;;13.63;11.15;;;;;;;;;;10265352;28;20052;-68
2021/05/26 02:27:52;;;;;;;14.20;10.98;;;;;;;;;;10278874;28;20099;-68
2021/05/26 02:32:49;;;;;;;11.75;10.48;;;;;;;;;;10274631;28;20036;-68
2021/05/26 02:37:45;;;;;;;12.60;9.95;;;;;;;;;;10277319;28;20176;-70
2021/05/26 02:42:42;;;;;;;13.50;10.35;;;;;;;;;;10259246;28;20087;-69
2021/05/26 02:47:38;;;;;;;12.95;10.65;;;;;;;;;;10264064;28;20099;-69
2021/05/26 02:52:34;;;;;;;12.02;9.80;;;;;;;;;;10269892;28;20062;-69
2021/05/26 02:57:31;;;;;;;12.10;9.20;;;;;;;;;;10264723;28;20051;-67
2021/05/26 03:02:27;;;;;;;11.38;8.70;;;;;;;;;;10263357;28;20083;-67
2021/05/26 03:07:24;;;;;;;13.88;10.50;;;;;;;;;;10262062;28;20083;-72
2021/05/26 03:12:20;;;;;;;12.18;8.65;;;;;;;;;;10260986;28;20408;-69
2021/05/26 03:17:16;;;;;;;9.18;7.15;;;;;;;;;;10268456;28;20090;-66
2021/05/26 03:22:13;;;;;;;10.63;7.60;;;;;;;;;;10274594;28;20506;-66
2021/05/26 03:27:09;;;;;;;12.73;8.13;;;;;;;;;;10260936;28;20044;-68
2021/05/26 03:32:06;;;;;;;12.85;9.40;;;;;;;;;;10278652;28;20036;-68
2021/05/26 03:37:02;;;;;;;14.93;11.02;;;;;;;;;;10271894;28;20060;-68
2021/05/26 03:41:58;;;;;;;16.58;11.82;;;;;;;;;;10260327;28;20481;-68
2021/05/26 03:46:54;;;;;;;14.20;10.45;;;;;;;;;;10259841;28;20060;-69
2021/05/26 03:51:51;;;;;;;14.85;10.77;;;;;;;;;;10259660;28;20118;-69
2021/05/26 03:56:47;;;;;;;13.75;10.48;;;;;;;;;;10259291;28;20106;-69
2021/05/26 04:01:44;;;;;;;12.93;8.82;;;;;;;;;;10259039;28;20072;-69
2021/05/26 04:06:40;;;;;;;14.45;9.93;;;;;;;;;;10252807;28;20572;-67
2021/05/26 04:11:37;;;;;;;12.63;9.48;;;;;;;;;;10268455;28;20049;-68
2021/05/26 04:16:33;;;;;;;12.63;9.20;;;;;;;;;;10244591;28;20778;-69
2021/05/26 04:21:30;;;;;;;14.55;9.55;;;;;;;;;;10265413;28;20049;-68
2021/05/26 04:26:27;;;;;;;12.82;9.07;;;;;;;;;;10247848;28;20511;-68
2021/05/26 04:31:23;;;;;;;15.48;8.40;;;;;;;;;;10272783;28;20110;-67
2021/05/26 04:36:20;;;;;;;17.38;9.02;;;;;;;;;;10266638;28;20522;-72
2021/05/26 04:41:16;;;;;;;12.05;8.30;;;;;;;;;;10264724;28;20045;-73
2021/05/26 04:46:13;;;;;;;11.18;7.65;;;;;;;;;;10249427;28;20052;-73
2021/05/26 04:51:10;;;;;;;14.15;7.60;;;;;;;;;;10264401;28;20521;-73
2021/05/26 04:56:06;;;;;;;12.15;7.07;;;;;;;;;;10265319;28;20098;-70
2021/05/26 05:01:02;;;;;;;12.00;7.47;;;;;;;;;;10257251;28;20049;-70
2021/05/26 05:06:00;;;;;;;12.32;6.68;;;;;;;;;;10250347;28;20045;-68
2021/05/26 05:10:56;;;;;;;11.50;7.45;;;;;;;;;;10271984;28;20061;-71
2021/05/26 05:15:53;;;;;;;13.52;7.30;;;;;;;;;;10250568;28;20094;-67
2021/05/26 05:20:49;;;;;;;11.48;7.07;;;;;;;;;;10263550;28;20049;-70
2021/05/26 05:25:46;;;;;;;10.00;6.50;;;;;;;;;;10264040;28;20045;-69
2021/05/26 05:30:42;;;;;;;11.52;6.82;;;;;;;;;;10258849;28;20045;-71
2021/05/26 05:35:38;;;;;;;13.23;7.57;;;;;;;;;;10274516;28;20076;-71
2021/05/26 05:40:35;;;;;;;11.00;7.57;;;;;;;;;;10276137;28;20131;-69
2021/05/26 05:45:31;;;;;;;10.27;7.40;;;;;;;;;;10267884;28;20564;-68
2021/05/26 05:50:28;;;;;;;10.90;7.05;;;;;;;;;;10265802;28;20095;-70
2021/05/26 05:55:24;;;;;;;11.82;7.63;;;;;;;;;;10265476;28;20064;-69
2021/05/26 06:00:21;;;;;;;10.82;8.55;;;;;;;;;;10269048;28;20049;-70
2021/05/26 06:05:17;;;;;;;12.13;8.93;;;;;;;;;;10260618;28;20048;-71
2021/05/26 06:10:14;;;;;;;9.73;7.05;;;;;;;;;;10262414;28;20045;-70
2021/05/26 06:15:11;;;;;;;9.55;7.22;;;;;;;;;;10253866;28;20080;-71
2021/05/26 06:20:08;;;;;;;12.95;8.15;;;;;;;;;;10251693;28;20107;-69
2021/05/26 06:25:05;;;;;;;11.95;7.50;;;;;;;;;;10257498;28;20487;-72
2021/05/26 06:30:01;;;;;;;12.00;6.97;;;;;;;;;;10258428;28;20053;-71
2021/05/26 06:34:57;;;;;;;9.98;7.38;;;;;;;;;;10244131;28;20051;-70
2021/05/26 06:39:55;;;;;;;16.88;7.07;;;;;;;;;;10248971;28;20831;-69
2021/05/26 06:44:52;;;;;;;12.98;7.95;;;;;;;;;;10269050;28;20553;-71
2021/05/26 06:49:48;;;;;;;12.45;9.07;;;;;;;;;;10264408;28;20087;-70
2021/05/26 06:54:45;;;;;;;12.15;8.73;;;;;;;;;;10260180;28;20043;-70
2021/05/26 06:59:41;;;;;;;11.18;8.65;;;;;;;;;;10265616;28;20049;-70
2021/05/26 07:04:37;;;;;;;14.20;8.85;;;;;;;;;;10258460;28;20111;-70
2021/05/26 07:09:34;;;;;;;10.98;6.85;;;;;;;;;;10267005;28;20139;-70
2021/05/26 07:14:30;;;;;;;7.88;6.32;;;;;;;;;;10254907;28;20429;-72
2021/05/26 07:19:27;;;;;;;9.18;6.97;;;;;;;;;;10256898;28;20048;-71
2021/05/26 07:24:23;;;;;;;7.70;6.28;;;;;;;;;;10251887;28;20540;-71
2021/05/26 07:29:19;;;;;;;9.57;6.15;;;;;;;;;;10251658;28;20048;-70
2021/05/26 07:34:15;;;;;;;7.63;5.15;;;;;;;;;;10254937;28;20041;-71
2021/05/26 07:39:12;;;;;;;5.00;4.13;;;;;;;;;;10249468;28;20098;-71
2021/05/26 07:44:08;;;;;;;8.48;4.15;;;;;;;;;;10247391;28;20091;-70
2021/05/26 07:49:05;;;;;;;5.63;3.80;;;;;;;;;;10244483;28;20079;-70
2021/05/26 07:54:01;;;;;;;5.97;4.60;;;;;;;;;;10255116;28;20076;-69
2021/05/26 07:58:58;;;;;;;12.55;5.85;;;;;;;;;;10245534;28;20053;-69
2021/05/26 08:03:54;;;;;;;8.15;6.93;;;;;;;;;;10245203;28;20107;-71
2021/05/26 08:08:51;;;;;;;13.52;8.63;;;;;;;;;;10254279;28;20049;-70
2021/05/26 08:13:47;;;;;;;13.65;9.57;;;;;;;;;;10257346;28;20745;-70
2021/05/26 08:18:44;;;;;;;18.33;11.32;;;;;;;;;;10260425;28;20045;-71
2021/05/26 08:23:40;;;;;;;18.02;14.18;;;;;;;;;;10252388;28;20048;-71
2021/05/26 08:28:37;;;;;;;18.02;14.57;;;;;;;;;;10250867;28;20065;-70
2021/05/26 08:33:33;;;;;;;24.30;16.73;;;;;;;;;;10252856;28;20572;-71
2021/05/26 08:38:29;;;;;;;23.63;17.13;;;;;;;;;;10252556;28;20075;-70
2021/05/26 08:43:26;;;;;;;26.50;18.52;;;;;;;;;;10248003;28;20049;-71
2021/05/26 08:48:25;;;;;;;25.00;17.00;;;;;;;;;;10263466;28;20140;-71
2021/05/26 08:53:21;;;;;;;21.25;16.27;;;;;;;;;;10264792;28;20096;-71
2021/05/26 08:58:17;;;;;;;20.85;15.45;;;;;;;;;;10249461;28;20400;-70
2021/05/26 09:03:14;;;;;;;17.83;13.77;;;;;;;;;;10255499;28;20103;-69
2021/05/26 09:08:18;;;;;;;17.20;9.23;;;;;;;;;;10264325;28;20135;-69
2021/05/26 09:13:27;;;;;;;17.08;11.73;;;;;;;;;;10262932;28;20045;-70
2021/05/26 09:18:23;;;;;;;21.98;11.05;;;;;;;;;;10259329;28;20047;-70
2021/05/26 09:23:29;;;;;;;14.95;10.25;;;;;;;;;;10246183;28;20057;-69
2021/05/26 09:28:29;;;;;;;13.45;8.10;;;;;;;;;;10251291;28;20048;-68
2021/05/26 09:33:25;;;;;;;15.20;8.77;;;;;;;;;;10264567;28;20077;-72
2021/05/26 09:38:21;;;;;;;14.63;7.97;;;;;;;;;;10255183;28;20048;-72
2021/05/26 09:43:37;;;;;;;12.73;6.90;;;;;;;;;;10253785;28;20115;-69
2021/05/26 09:48:33;;;;;;;13.05;6.20;;;;;;;;;;10262791;28;20466;-70
2021/05/26 09:53:29;;;;;;;11.98;5.65;;;;;;;;;;10251933;28;20072;-72
2021/05/26 09:58:26;;;;;;;16.48;8.02;;;;;;;;;;10257022;28;20099;-71
2021/05/26 10:03:23;;;;;;;16.77;8.07;;;;;;;;;;10255625;28;20057;-70
2021/05/26 10:08:20;;;;;;;13.30;8.25;;;;;;;;;;10249892;28;20088;-69
2021/05/26 10:13:18;;;;;;;13.82;9.02;;;;;;;;;;10254866;28;20049;-69
2021/05/26 10:18:15;;;;;;;14.15;8.38;;;;;;;;;;10248578;28;20128;-71
2021/05/26 10:23:15;;;;;;;12.68;8.02;;;;;;;;;;10260452;28;20065;-71
2021/05/26 10:28:32;;;;;;;10.57;6.05;;;;;;;;;;10247757;28;20129;-71
2021/05/26 10:33:43;;;;;;;9.05;4.15;;;;;;;;;;10257936;28;20079;-70
2021/05/26 10:38:53;;;;;;;6.70;3.25;;;;;;;;;;10252934;28;20076;-70
2021/05/26 10:43:56;;;;;;;10.20;3.80;;;;;;;;;;10251471;28;20106;-70
2021/05/26 10:48:53;;;;;;;6.57;3.43;;;;;;;;;;10250679;28;20712;-71
2021/05/26 10:53:49;;;;;;;7.72;3.28;;;;;;;;;;10259910;28;20064;-69
2021/05/26 10:58:46;;;;;;;4.20;2.50;;;;;;;;;;10258545;28;20040;-69
2021/05/26 11:03:44;;;;;;;8.07;2.72;;;;;;;;;;10253622;28;20053;-70
2021/05/26 11:08:46;;;;;;;5.03;2.03;;;;;;;;;;10243206;28;20045;-71
2021/05/26 11:14:18;;;;;;;6.05;2.10;;;;;;;;;;10245121;28;20495;-70
2021/05/26 11:19:21;;;;;;;5.63;2.22;;;;;;;;;;10206843;28;20045;-70
2021/05/26 11:24:18;;;;;;;4.10;1.60;;;;;;;;;;10250865;28;20117;-69
2021/05/26 11:29:31;;;;;;;6.25;2.33;;;;;;;;;;10245756;28;20049;-71
2021/05/26 11:34:27;;;;;;;6.93;2.05;;;;;;;;;;10249804;28;20040;-70
2021/05/26 11:39:28;;;;;;;5.50;1.88;;;;;;;;;;10246131;28;20515;-71
2021/05/26 11:44:32;;;;;;;3.58;1.70;;;;;;;;;;10247452;28;20507;-71
2021/05/26 11:49:33;;;;;;;4.57;1.85;;;;;;;;;;10245758;28;20041;-71
2021/05/26 11:54:29;;;;;;;7.57;2.20;;;;;;;;;;10247142;28;20045;-71
2021/05/26 11:59:27;;;;;;;7.25;2.50;;;;;;;;;;10252786;28;20052;-71
2021/05/26 12:04:23;;;;;;;7.05;2.90;;;;;;;;;;10244636;28;20053;-71
2021/05/26 12:09:30;;;;;;;6.43;2.80;;;;;;;;;;10259817;28;20077;-70
2021/05/26 12:14:30;;;;;;;6.28;3.53;;;;;;;;;;10250780;28;20391;-70
2021/05/26 12:19:31;;;;;;;8.57;3.72;;;;;;;;;;10263455;28;20156;-70
2021/05/26 12:24:27;;;;;;;6.82;3.63;;;;;;;;;;10267759;28;20072;-71
2021/05/26 12:29:24;;;;;;;5.72;3.10;;;;;;;;;;10265609;28;20510;-71
2021/05/26 12:34:21;;;;;;;5.70;3.45;;;;;;;;;;10269249;28;20037;-70
2021/05/26 12:39:18;;;;;;;4.85;2.42;;;;;;;;;;10259632;28;20132;-70
2021/05/26 12:44:15;;;;;;;7.05;3.65;;;;;;;;;;10257092;28;20052;-70
2021/05/26 12:49:30;;;;;;;9.70;3.90;;;;;;;;;;10255283;28;20083;-69
2021/05/26 12:54:27;;;;;;;8.07;4.60;;;;;;;;;;10255569;28;20533;-70
2021/05/26 12:59:34;;;;;;;11.73;4.20;;;;;;;;;;10250901;28;20473;-69
2021/05/26 13:04:35;;;;;;;6.20;3.80;;;;;;;;;;10263380;28;20581;-71
2021/05/26 13:09:35;;;;;;;7.05;3.35;;;;;;;;;;10249806;28;20474;-69
2021/05/26 13:14:32;;;;;;;8.75;3.03;;;;;;;;;;10253501;28;20055;-70
2021/05/26 13:19:28;;;;;;;5.40;2.45;;;;;;;;;;10256157;28;20070;-70
2021/05/26 13:24:24;;;;;;;5.78;2.83;;;;;;;;;;10262989;28;20095;-71
2021/05/26 13:29:21;;;;;;;6.43;2.08;;;;;;;;;;10263077;28;20049;-69
2021/05/26 13:34:17;;;;;;;2.97;0.65;;;;;;;;;;10257387;28;20095;-69
2021/05/26 13:39:13;;;;;;;3.22;0.68;;;;;;;;;;10261726;28;20045;-70
2021/05/26 13:44:10;;;;;;;4.03;0.77;;;;;;;;;;10267681;28;20080;-70
2021/05/26 13:49:06;;;;;;;4.20;1.00;;;;;;;;;;10266788;28;20496;-71
2021/05/26 13:54:03;;;;;;;2.45;1.30;;;;;;;;;;10269513;28;20103;-71
2021/05/26 13:58:59;;;;;;;2.88;0.98;;;;;;;;;;10269495;28;20156;-68
2021/05/26 14:03:55;;;;;;;3.13;0.85;;;;;;;;;;10264171;28;20095;-69
2021/05/26 14:08:52;;;;;;;2.92;1.00;;;;;;;;;;10263438;28;20044;-70
2021/05/26 14:13:48;;;;;;;3.75;1.38;;;;;;;;;;10253946;28;20042;-70
2021/05/26 14:18:45;;;;;;;4.38;1.75;;;;;;;;;;10249894;28;20044;-69
2021/05/26 14:23:41;;;;;;;6.18;2.28;;;;;;;;;;10252400;28;20124;-71
2021/05/26 14:28:38;;;;;;;6.18;2.30;;;;;;;;;;10252284;28;20042;-71
2021/05/26 14:33:34;;;;;;;7.55;2.00;;;;;;;;;;10248388;28;20076;-71
2021/05/26 14:38:40;;;;;;;6.88;1.95;;;;;;;;;;10248404;28;20051;-70
2021/05/26 14:43:38;;;;;;;3.28;1.50;;;;;;;;;;10247250;28;20059;-68
2021/05/26 14:48:35;;;;;;;5.18;1.90;;;;;;;;;;10257509;28;20391;-67
2021/05/26 14:53:31;;;;;;;4.03;1.90;;;;;;;;;;10254762;28;20040;-70
2021/05/26 14:58:28;;;;;;;2.80;1.33;;;;;;;;;;10252160;28;20102;-70
2021/05/26 15:03:24;;;;;;;9.23;1.85;;;;;;;;;;10254508;28;20036;-69
2021/05/26 15:08:22;;;;;;;5.30;1.95;;;;;;;;;;10249770;28;20049;-69
2021/05/26 15:13:22;;;;;;;5.10;1.63;;;;;;;;;;10256758;28;20087;-69
2021/05/26 15:18:19;;;;;;;5.72;1.58;;;;;;;;;;10247363;28;20456;-68
2021/05/26 15:23:18;;;;;;;3.92;1.70;;;;;;;;;;10262559;28;20675;-69
2021/05/26 15:28:16;;;;;;;4.80;2.05;;;;;;;;;;10260623;28;20102;-69
2021/05/26 15:33:13;;;;;;;3.35;0.98;;;;;;;;;;10259401;28;20546;-69
2021/05/26 15:38:09;;;;;;;2.47;0.80;;;;;;;;;;10252424;28;20080;-68
2021/05/26 15:43:10;;;;;;;2.40;0.60;;;;;;;;;;10253149;28;20049;-68
2021/05/26 15:48:07;;;;;;;4.57;0.80;;;;;;;;;;10246251;28;20107;-70
2021/05/26 15:53:03;;;;;;;2.83;0.65;;;;;;;;;;10251581;28;20789;-69
2021/05/26 15:58:00;;;;;;;2.92;0.90;;;;;;;;;;10252600;28;20136;-69
2021/05/26 16:02:57;;;;;;;2.00;0.70;;;;;;;;;;10251908;28;20048;-68
2021/05/26 16:07:54;;;;;;;2.05;0.80;;;;;;;;;;10254029;28;20390;-70
2021/05/26 16:12:52;;;;;;;4.22;1.65;;;;;;;;;;10258092;28;20053;-70
2021/05/26 16:17:49;;;;;;;5.72;0.77;;;;;;;;;;10248316;28;20041;-70
2021/05/26 16:22:46;;;;;;;3.20;1.10;;;;;;;;;;10253744;28;20576;-68
2021/05/26 16:27:42;;;;;;;4.63;1.10;;;;;;;;;;10249530;28;20049;-72
2021/05/26 16:32:39;;;;;;;3.70;1.17;;;;;;;;;;10267361;28;20056;-68
2021/05/26 16:37:37;;;;;;;5.85;1.23;;;;;;;;;;10251815;28;20079;-69
2021/05/26 16:42:35;;;;;;;2.70;1.00;;;;;;;;;;10252808;28;20475;-66
2021/05/26 16:47:33;;;;;;;3.13;1.00;;;;;;;;;;10245758;28;20049;-67
2021/05/26 16:52:30;;;;;;;4.40;1.33;;;;;;;;;;10250720;28;20128;-70
2021/05/26 16:57:26;;;;;;;4.75;1.42;;;;;;;;;;10253888;28;20072;-70
2021/05/26 17:02:23;;;;;;;5.28;1.35;;;;;;;;;;10249005;28;20093;-70
2021/05/26 17:07:19;;;;;;;5.30;1.55;;;;;;;;;;10264092;28;20048;-68
2021/05/26 17:12:16;;;;;;;4.13;1.10;;;;;;;;;;10255659;28;20125;-70
2021/05/26 17:17:12;;;;;;;3.70;1.10;;;;;;;;;;10263216;28;20044;-70
2021/05/26 17:22:08;;;;;;;3.97;1.20;;;;;;;;;;10252891;28;20045;-69
2021/05/26 17:27:08;;;;;;;2.55;1.00;;;;;;;;;;10252612;28;20041;-69
2021/05/26 17:32:04;;;;;;;4.82;1.80;;;;;;;;;;10253064;28;20550;-69
2021/05/26 17:37:01;;;;;;;6.95;2.67;;;;;;;;;;10248279;28;20072;-68
2021/05/26 17:41:57;;;;;;;2.85;1.10;;;;;;;;;;10257535;28;20495;-70
2021/05/26 17:46:54;;;;;;;4.97;1.50;;;;;;;;;;10259760;28;20549;-69
2021/05/26 17:51:50;;;;;;;2.97;0.90;;;;;;;;;;10253149;28;20068;-68
2021/05/26 17:56:47;;;;;;;4.88;1.20;;;;;;;;;;10272962;28;20072;-68
2021/05/26 18:01:43;;;;;;;5.55;1.55;;;;;;;;;;10257839;28;20040;-69
2021/05/26 18:06:40;;;;;;;3.83;1.13;;;;;;;;;;10262418;28;20052;-69
2021/05/26 18:11:36;;;;;;;3.58;0.85;;;;;;;;;;10262812;28;20503;-70
2021/05/26 18:16:34;;;;;;;4.55;1.10;;;;;;;;;;10258012;28;20045;-68
2021/05/26 18:21:31;;;;;;;3.30;1.17;;;;;;;;;;10266377;28;20507;-69
2021/05/26 18:26:33;;;;;;;4.53;1.20;;;;;;;;;;10257495;28;20086;-69
2021/05/26 18:31:29;;;;;;;2.50;0.93;;;;;;;;;;10244418;28;20641;-68
2021/05/26 18:36:26;;;;;;;4.97;1.08;;;;;;;;;;10248353;28;20183;-69
2021/05/26 18:41:22;;;;;;;3.05;1.15;;;;;;;;;;10258972;28;20048;-69
2021/05/26 18:46:21;;;;;;;5.30;0.98;;;;;;;;;;10248168;28;20052;-69
2021/05/26 18:51:18;;;;;;;4.60;1.02;;;;;;;;;;10255513;28;20137;-69
2021/05/26 18:56:14;;;;;;;4.35;0.90;;;;;;;;;;10258907;28;20650;-68
2021/05/26 19:01:13;;;;;;;4.28;1.17;;;;;;;;;;10268343;28;20507;-68
2021/05/26 19:06:11;;;;;;;3.13;1.00;;;;;;;;;;10272227;28;20068;-69
2021/05/26 19:11:08;;;;;;;4.22;1.42;;;;;;;;;;10267094;28;20450;-70
2021/05/26 19:16:08;;;;;;;3.08;1.00;;;;;;;;;;10263227;28;20293;-70
2021/05/26 19:21:05;;;;;;;5.90;0.98;;;;;;;;;;10271353;28;20044;-69
2021/05/26 19:26:02;;;;;;;3.83;1.40;;;;;;;;;;10271580;28;20143;-70
2021/05/26 19:30:58;;;;;;;2.28;0.90;;;;;;;;;;10265305;28;20107;-69
2021/05/26 19:35:55;;;;;;;4.10;1.20;;;;;;;;;;10264346;28;20116;-68
2021/05/26 19:40:52;;;;;;;5.03;0.93;;;;;;;;;;10267944;28;20075;-69
2021/05/26 19:45:50;;;;;;;4.80;1.00;;;;;;;;;;10265877;28;20126;-70
2021/05/26 19:50:47;;;;;;;3.75;0.82;;;;;;;;;;10267644;28;20053;-69
2021/05/26 19:55:43;;;;;;;4.20;1.50;;;;;;;;;;10265961;28;20045;-69
2021/05/26 20:00:40;;;;;;;4.85;1.65;;;;;;;;;;10273447;28;20118;-69
2021/05/26 20:05:56;;;;;;;3.00;1.25;;;;;;;;;;10266670;28;20049;-71
2021/05/26 20:10:53;;;;;;;5.60;1.63;;;;;;;;;;10266901;28;20154;-71
2021/05/26 20:15:50;;;;;;;5.50;1.40;;;;;;;;;;10269794;28;20095;-69
2021/05/26 20:20:48;;;;;;;5.47;1.65;;;;;;;;;;10267592;28;20534;-70
2021/05/26 20:25:44;;;;;;;3.63;1.67;;;;;;;;;;10256888;28;20076;-72
2021/05/26 20:30:43;;;;;;;5.85;1.92;;;;;;;;;;10254975;28;20048;-70
2021/05/26 20:35:40;;;;;;;2.95;1.33;;;;;;;;;;10250444;28;20053;-69
2021/05/26 20:40:36;;;;;;;7.45;2.30;;;;;;;;;;10257767;28;20036;-71
2021/05/26 20:45:34;;;;;;;5.63;2.00;;;;;;;;;;10272557;28;20051;-72
2021/05/26 20:50:30;;;;;;;7.47;2.40;;;;;;;;;;10286665;28;20049;-71
2021/05/26 20:55:27;;;;;;;6.53;2.63;;;;;;;;;;10280459;28;20052;-71
2021/05/26 21:00:25;;;;;;;6.00;2.40;;;;;;;;;;10265270;28;20506;-72
2021/05/26 21:05:25;;;;;;;4.72;2.80;;;;;;;;;;10271686;28;20418;-70
2021/05/26 21:10:32;;;;;;;4.70;2.58;;;;;;;;;;10277045;28;20048;-71
2021/05/26 21:15:31;;;;;;;5.80;2.20;;;;;;;;;;10285419;28;20065;-70
2021/05/26 21:20:28;;;;;;;4.80;1.92;;;;;;;;;;10279162;28;20049;-68
2021/05/26 21:25:24;;;;;;;3.53;1.92;;;;;;;;;;10279767;28;20483;-69
2021/05/26 21:30:21;;;;;;;3.88;1.73;;;;;;;;;;10265446;28;20098;-68
2021/05/26 21:35:20;;;;;;;5.07;2.63;;;;;;;;;;10272206;28;20052;-71
2021/05/26 21:40:17;;;;;;;4.63;1.67;;;;;;;;;;10276121;28;20099;-71
2021/05/26 21:45:13;;;;;;;4.18;2.25;;;;;;;;;;10259118;28;20047;-71
2021/05/26 21:50:10;;;;;;;4.40;1.90;;;;;;;;;;10277684;28;20081;-71
2021/05/26 21:55:06;;;;;;;4.78;2.30;;;;;;;;;;10272531;28;20450;-68
2021/05/26 22:00:07;;;;;;;6.50;2.85;;;;;;;;;;10268906;28;20073;-72
2021/05/26 22:05:04;;;;;;;4.18;2.67;;;;;;;;;;10269981;28;20113;-71
2021/05/26 22:10:00;;;;;;;5.63;3.10;;;;;;;;;;10274226;28;20098;-70
2021/05/26 22:14:56;;;;;;;5.43;2.97;;;;;;;;;;10268935;28;20482;-72
2021/05/26 22:19:53;;;;;;;4.93;2.92;;;;;;;;;;10274249;28;20095;-72
2021/05/26 22:24:49;;;;;;;6.35;2.78;;;;;;;;;;10272844;28;20045;-72
2021/05/26 22:29:46;;;;;;;6.20;2.63;;;;;;;;;;10276472;28;20110;-67
2021/05/26 22:34:42;;;;;;;4.20;2.55;;;;;;;;;;10270979;28;20075;-69
2021/05/26 22:39:38;;;;;;;4.80;2.55;;;;;;;;;;10265267;28;20102;-72
2021/05/26 22:44:56;;;;;;;5.13;2.55;;;;;;;;;;10274714;28;20094;-72
2021/05/26 22:49:52;;;;;;;4.97;2.08;;;;;;;;;;10274117;28;20067;-68
2021/05/26 22:54:49;;;;;;;5.65;2.50;;;;;;;;;;10266931;28;20040;-68
2021/05/26 22:59:45;;;;;;;7.90;2.05;;;;;;;;;;10262087;28;20055;-68
2021/05/26 23:04:42;;;;;;;5.38;2.00;;;;;;;;;;10273213;28;20649;-68
2021/05/26 23:09:39;;;;;;;5.78;2.40;;;;;;;;;;10258017;28;20041;-67
2021/05/26 23:14:35;;;;;;;7.60;2.50;;;;;;;;;;10259892;28;20515;-71
2021/05/26 23:19:31;;;;;;;6.10;2.30;;;;;;;;;;10271248;28;20040;-69
2021/05/26 23:24:28;;;;;;;6.95;2.45;;;;;;;;;;10283428;28;20082;-71
2021/05/26 23:29:24;;;;;;;10.25;2.20;;;;;;;;;;10271220;28;20076;-70
2021/05/26 23:34:20;;;;;;;6.88;2.00;;;;;;;;;;10271902;28;20127;-67
2021/05/26 23:39:16;;;;;;;10.32;2.92;;;;;;;;;;10271449;28;20127;-70
2021/05/26 23:44:13;;;;;;;5.97;2.38;;;;;;;;;;10251407;28;20156;-70
2021/05/26 23:49:09;;;;;;;8.48;2.33;;;;;;;;;;10260580;28;20072;-71
2021/05/26 23:54:05;;;;;;;7.80;1.95;;;;;;;;;;10269641;28;20045;-70
2021/05/26 23:59:02;;;;;;;7.38;2.75;;;;;;;;;;10269860;28;20072;-70
